createdAt,value
2023-03-03T00:00:25.869Z,0.00
2023-03-03T00:01:25.859Z,0.00
2023-03-03T00:03:49.410Z,0.00
2023-03-03T00:04:49.341Z,0.00
2023-03-03T00:05:49.315Z,0.00
2023-03-03T00:06:49.308Z,0.00
2023-03-03T00:07:49.303Z,0.00
2023-03-03T00:08:49.379Z,0.00
2023-03-03T00:09:49.278Z,0.00
2023-03-03T00:10:49.275Z,0.00
2023-03-03T00:11:49.249Z,0.00
2023-03-03T00:12:49.235Z,0.00
2023-03-03T00:13:49.252Z,0.00
2023-03-03T00:14:49.243Z,0.00
2023-03-03T00:15:49.266Z,0.00
2023-03-03T00:16:49.212Z,0.00
2023-03-03T00:17:49.193Z,0.00
2023-03-03T00:18:49.195Z,0.00
2023-03-03T00:19:49.174Z,0.00
2023-03-03T00:20:49.151Z,0.00
2023-03-03T00:21:49.142Z,0.00
2023-03-03T00:22:49.129Z,0.00
2023-03-03T00:23:49.154Z,0.00
2023-03-03T00:24:49.105Z,0.00
2023-03-03T00:25:49.108Z,0.00
2023-03-03T00:26:49.109Z,0.00
2023-03-03T00:27:49.080Z,0.00
2023-03-03T00:28:49.073Z,0.00
2023-03-03T00:29:49.075Z,0.00
2023-03-03T00:30:49.110Z,0.00
2023-03-03T00:31:49.057Z,0.00
2023-03-03T00:32:49.028Z,0.00
2023-03-03T00:33:49.046Z,0.00
2023-03-03T00:34:49.020Z,0.00
2023-03-03T00:35:49.093Z,0.00
2023-03-03T00:36:48.992Z,0.00
2023-03-03T00:37:48.989Z,0.00
2023-03-03T00:38:48.998Z,0.00
2023-03-03T00:39:48.956Z,0.00
2023-03-03T00:40:48.956Z,0.00
2023-03-03T00:41:48.959Z,0.00
2023-03-03T00:42:48.926Z,0.00
2023-03-03T00:43:48.944Z,0.00
2023-03-03T00:44:48.909Z,0.00
2023-03-03T00:45:49.001Z,0.00
2023-03-03T00:46:48.886Z,0.00
2023-03-03T00:47:48.886Z,0.00
2023-03-03T00:48:48.889Z,0.00
2023-03-03T00:49:48.867Z,0.00
2023-03-03T00:50:48.858Z,0.00
2023-03-03T00:51:48.840Z,0.00
2023-03-03T00:52:48.827Z,0.00
2023-03-03T00:53:48.837Z,0.00
2023-03-03T00:54:48.813Z,0.00
2023-03-03T00:55:48.799Z,0.00
2023-03-03T00:56:48.787Z,0.00
2023-03-03T00:57:48.777Z,0.00
2023-03-03T00:58:48.763Z,0.00
2023-03-03T00:59:48.768Z,0.00
2023-03-03T01:00:48.753Z,0.00
2023-03-03T01:01:48.778Z,0.00
2023-03-03T01:02:48.792Z,0.00
2023-03-03T01:03:48.714Z,0.00
2023-03-03T01:04:48.711Z,0.00
2023-03-03T01:05:48.695Z,0.00
2023-03-03T01:06:48.679Z,0.00
2023-03-03T01:07:48.672Z,0.00
2023-03-03T01:08:48.664Z,0.00
2023-03-03T01:09:48.659Z,0.00
2023-03-03T01:10:48.634Z,0.00
2023-03-03T01:11:48.628Z,0.00
2023-03-03T01:12:48.612Z,0.00
2023-03-03T01:13:48.610Z,0.00
2023-03-03T01:14:48.626Z,0.00
2023-03-03T01:15:48.668Z,0.00
2023-03-03T01:16:48.576Z,0.00
2023-03-03T01:17:48.568Z,0.00
2023-03-03T01:18:48.568Z,0.00
2023-03-03T01:19:48.592Z,0.00
2023-03-03T01:20:48.531Z,0.00
2023-03-03T01:21:48.553Z,0.00
2023-03-03T01:22:48.518Z,0.00
2023-03-03T01:23:48.514Z,0.00
2023-03-03T01:24:48.515Z,0.00
2023-03-03T01:25:48.479Z,0.00
2023-03-03T01:26:48.471Z,0.00
2023-03-03T01:27:48.459Z,0.00
2023-03-03T01:28:48.446Z,0.00
2023-03-03T01:29:48.452Z,0.00
2023-03-03T01:30:48.447Z,0.00
2023-03-03T01:31:48.418Z,0.00
2023-03-03T01:32:48.404Z,0.00
2023-03-03T01:33:48.398Z,0.00
2023-03-03T01:34:48.395Z,0.00
2023-03-03T01:35:48.450Z,0.00
2023-03-03T01:36:48.375Z,0.00
2023-03-03T01:37:48.369Z,0.00
2023-03-03T01:38:48.342Z,0.00
2023-03-03T01:39:48.359Z,0.00
2023-03-03T01:40:48.326Z,0.00
2023-03-03T01:41:48.317Z,0.00
2023-03-03T01:42:48.301Z,0.00
2023-03-03T01:43:48.300Z,0.00
2023-03-03T01:44:48.314Z,0.00
2023-03-03T01:45:48.281Z,0.00
2023-03-03T01:46:48.513Z,0.00
2023-03-03T01:47:48.255Z,0.00
2023-03-03T01:48:48.242Z,0.00
2023-03-03T01:49:48.243Z,0.00
2023-03-03T01:50:48.231Z,0.00
2023-03-03T01:51:48.220Z,0.00
2023-03-03T01:52:48.230Z,0.00
2023-03-03T01:53:48.192Z,0.00
2023-03-03T01:54:48.191Z,0.00
2023-03-03T01:55:48.172Z,0.00
2023-03-03T01:56:48.157Z,0.00
2023-03-03T01:57:48.155Z,0.00
2023-03-03T01:58:48.134Z,0.00
2023-03-03T01:59:48.163Z,0.00
2023-03-03T02:00:48.114Z,0.00
2023-03-03T02:01:48.194Z,0.00
2023-03-03T02:02:48.183Z,0.00
2023-03-03T02:03:48.083Z,0.00
2023-03-03T02:04:48.088Z,0.00
2023-03-03T02:05:48.095Z,0.00
2023-03-03T02:06:48.065Z,0.00
2023-03-03T02:07:48.044Z,0.00
2023-03-03T02:08:48.049Z,0.00
2023-03-03T02:09:48.046Z,0.00
2023-03-03T02:10:48.005Z,0.00
2023-03-03T02:11:48.003Z,0.00
2023-03-03T02:12:48.007Z,0.00
2023-03-03T02:13:47.998Z,0.00
2023-03-03T02:14:47.986Z,0.00
2023-03-03T02:15:48.006Z,0.00
2023-03-03T02:16:47.955Z,0.00
2023-03-03T02:17:47.958Z,0.00
2023-03-03T02:18:47.928Z,0.00
2023-03-03T02:19:47.935Z,0.00
2023-03-03T02:20:47.938Z,0.00
2023-03-03T02:21:47.918Z,0.00
2023-03-03T02:22:47.898Z,0.00
2023-03-03T02:23:47.882Z,0.00
2023-03-03T02:24:47.887Z,0.00
2023-03-03T02:25:47.858Z,0.00
2023-03-03T02:26:47.860Z,0.00
2023-03-03T02:27:47.850Z,0.00
2023-03-03T02:28:47.828Z,0.00
2023-03-03T02:29:47.835Z,0.00
2023-03-03T02:30:47.824Z,0.00
2023-03-03T02:31:47.825Z,0.00
2023-03-03T02:32:47.794Z,0.00
2023-03-03T02:33:47.791Z,0.00
2023-03-03T02:34:47.772Z,0.00
2023-03-03T02:35:47.801Z,0.00
2023-03-03T02:36:47.748Z,0.00
2023-03-03T02:37:47.737Z,0.00
2023-03-03T02:38:47.722Z,0.00
2023-03-03T02:39:47.731Z,0.00
2023-03-03T02:40:47.715Z,0.00
2023-03-03T02:41:47.733Z,0.00
2023-03-03T02:42:47.680Z,0.00
2023-03-03T02:43:47.670Z,0.00
2023-03-03T02:44:47.668Z,0.00
2023-03-03T02:45:47.709Z,0.00
2023-03-03T02:46:47.645Z,0.00
2023-03-03T02:47:47.629Z,0.00
2023-03-03T02:48:47.619Z,0.00
2023-03-03T02:49:47.610Z,0.00
2023-03-03T02:50:47.603Z,0.00
2023-03-03T02:51:47.585Z,0.00
2023-03-03T02:52:47.580Z,0.00
2023-03-03T02:53:47.566Z,0.00
2023-03-03T02:54:47.567Z,0.00
2023-03-03T02:55:47.552Z,0.00
2023-03-03T02:56:47.536Z,0.00
2023-03-03T02:57:47.523Z,0.00
2023-03-03T02:58:47.510Z,0.00
2023-03-03T02:59:47.506Z,0.00
2023-03-03T03:00:47.536Z,0.00
2023-03-03T03:01:47.484Z,0.00
2023-03-03T03:02:47.468Z,0.00
2023-03-03T03:03:47.448Z,0.00
2023-03-03T03:04:47.444Z,0.00
2023-03-03T03:05:47.444Z,0.00
2023-03-03T03:06:47.435Z,0.00
2023-03-03T03:07:47.409Z,0.00
2023-03-03T03:08:47.401Z,0.00
2023-03-03T03:09:47.475Z,0.00
2023-03-03T03:10:47.401Z,0.00
2023-03-03T03:11:47.362Z,0.00
2023-03-03T03:12:47.352Z,0.00
2023-03-03T03:13:47.344Z,0.00
2023-03-03T03:14:47.325Z,0.00
2023-03-03T03:15:47.318Z,0.00
2023-03-03T03:16:47.350Z,0.00
2023-03-03T03:17:47.307Z,0.00
2023-03-03T03:18:47.297Z,0.00
2023-03-03T03:19:47.285Z,0.00
2023-03-03T03:20:48.555Z,0.00
2023-03-03T03:21:47.271Z,0.00
2023-03-03T03:22:47.249Z,0.00
2023-03-03T03:23:47.236Z,0.00
2023-03-03T03:24:47.232Z,0.00
2023-03-03T03:25:47.216Z,0.00
2023-03-03T03:26:47.215Z,0.00
2023-03-03T03:27:47.187Z,0.00
2023-03-03T03:28:47.290Z,0.00
2023-03-03T03:29:47.167Z,0.00
2023-03-03T03:30:47.192Z,0.00
2023-03-03T03:31:47.160Z,0.00
2023-03-03T03:32:47.136Z,0.00
2023-03-03T03:33:47.128Z,0.00
2023-03-03T03:34:47.129Z,0.00
2023-03-03T03:35:47.181Z,0.00
2023-03-03T03:36:47.106Z,0.00
2023-03-03T03:37:47.089Z,0.00
2023-03-03T03:38:47.074Z,0.00
2023-03-03T03:39:47.058Z,0.00
2023-03-03T03:40:47.046Z,0.00
2023-03-03T03:41:47.071Z,0.00
2023-03-03T03:42:47.029Z,0.00
2023-03-03T03:43:47.015Z,0.00
2023-03-03T03:44:47.044Z,0.00
2023-03-03T03:45:47.013Z,0.00
2023-03-03T03:46:47.009Z,0.00
2023-03-03T03:47:47.008Z,0.00
2023-03-03T03:48:46.962Z,0.00
2023-03-03T03:49:46.958Z,0.00
2023-03-03T03:50:46.941Z,0.00
2023-03-03T03:51:46.938Z,0.00
2023-03-03T03:52:46.934Z,0.00
2023-03-03T03:53:46.911Z,0.00
2023-03-03T03:54:46.906Z,0.00
2023-03-03T03:55:46.888Z,0.00
2023-03-03T03:56:46.901Z,0.00
2023-03-03T03:57:46.870Z,0.00
2023-03-03T03:58:46.864Z,0.00
2023-03-03T03:59:46.852Z,0.00
2023-03-03T04:00:46.852Z,0.00
2023-03-03T04:01:46.844Z,0.00
2023-03-03T04:02:46.901Z,0.00
2023-03-03T04:03:46.816Z,0.00
2023-03-03T04:04:46.811Z,0.00
2023-03-03T04:05:46.793Z,0.00
2023-03-03T04:06:46.808Z,0.00
2023-03-03T04:07:46.764Z,0.00
2023-03-03T04:08:46.762Z,0.00
2023-03-03T04:09:46.750Z,0.00
2023-03-03T04:10:46.742Z,0.00
2023-03-03T04:11:46.738Z,0.00
2023-03-03T04:12:46.719Z,0.00
2023-03-03T04:13:46.706Z,0.00
2023-03-03T04:14:46.701Z,0.00
2023-03-03T04:15:46.740Z,0.00
2023-03-03T04:16:46.688Z,0.00
2023-03-03T04:17:46.669Z,0.00
2023-03-03T04:18:46.862Z,0.00
2023-03-03T04:19:46.660Z,0.00
2023-03-03T04:20:46.634Z,0.00
2023-03-03T04:21:46.633Z,0.00
2023-03-03T04:22:46.624Z,0.00
2023-03-03T04:23:46.630Z,0.00
2023-03-03T04:24:46.589Z,0.00
2023-03-03T04:25:46.594Z,0.00
2023-03-03T04:26:46.594Z,0.00
2023-03-03T04:27:46.563Z,0.00
2023-03-03T04:28:46.563Z,0.00
2023-03-03T04:29:46.557Z,0.00
2023-03-03T04:30:46.612Z,0.00
2023-03-03T04:31:46.538Z,0.00
2023-03-03T04:32:46.532Z,0.00
2023-03-03T04:33:46.501Z,0.00
2023-03-03T04:34:52.962Z,0.00
2023-03-03T04:35:47.554Z,0.00
2023-03-03T04:36:46.490Z,0.00
2023-03-03T04:37:46.460Z,0.00
2023-03-03T04:38:46.452Z,0.00
2023-03-03T04:39:46.442Z,0.00
2023-03-03T04:40:46.429Z,0.00
2023-03-03T04:41:46.430Z,0.00
2023-03-03T04:42:46.404Z,0.00
2023-03-03T04:43:46.404Z,0.00
2023-03-03T04:44:46.387Z,0.00
2023-03-03T04:45:46.372Z,0.00
2023-03-03T04:46:46.380Z,0.00
2023-03-03T04:47:46.353Z,0.00
2023-03-03T04:48:46.350Z,0.00
2023-03-03T04:49:46.348Z,0.00
2023-03-03T04:50:46.329Z,0.00
2023-03-03T04:51:46.327Z,0.00
2023-03-03T04:52:46.304Z,0.00
2023-03-03T04:53:46.290Z,0.00
2023-03-03T04:54:46.275Z,0.00
2023-03-03T04:55:46.280Z,0.00
2023-03-03T04:56:46.279Z,0.00
2023-03-03T04:57:46.282Z,0.00
2023-03-03T04:58:46.249Z,0.00
2023-03-03T04:59:46.234Z,0.00
2023-03-03T05:00:46.217Z,0.00
2023-03-03T05:01:46.315Z,0.00
2023-03-03T05:02:46.197Z,0.00
2023-03-03T05:03:46.187Z,0.00
2023-03-03T05:04:46.245Z,0.00
2023-03-03T05:05:46.165Z,0.00
2023-03-03T05:06:46.181Z,0.00
2023-03-03T05:07:46.140Z,0.00
2023-03-03T05:08:46.126Z,0.00
2023-03-03T05:09:46.139Z,0.00
2023-03-03T05:10:46.139Z,0.00
2023-03-03T05:11:46.119Z,0.00
2023-03-03T05:12:46.086Z,0.00
2023-03-03T05:13:46.079Z,0.00
2023-03-03T05:14:46.067Z,0.00
2023-03-03T05:15:46.125Z,0.00
2023-03-03T05:16:46.093Z,0.00
2023-03-03T05:17:46.060Z,0.00
2023-03-03T05:18:46.942Z,0.00
2023-03-03T05:19:46.012Z,0.00
2023-03-03T05:20:46.010Z,0.00
2023-03-03T05:21:46.070Z,0.00
2023-03-03T05:22:45.993Z,0.00
2023-03-03T05:23:45.974Z,0.00
2023-03-03T05:24:45.961Z,0.00
2023-03-03T05:25:45.949Z,0.00
2023-03-03T05:26:45.977Z,0.00
2023-03-03T05:27:45.930Z,0.00
2023-03-03T05:28:45.923Z,0.00
2023-03-03T05:29:45.904Z,0.00
2023-03-03T05:30:45.896Z,0.00
2023-03-03T05:31:45.984Z,0.00
2023-03-03T05:32:45.873Z,0.00
2023-03-03T05:33:45.864Z,0.00
2023-03-03T05:34:45.850Z,0.00
2023-03-03T05:35:45.905Z,0.00
2023-03-03T05:36:45.850Z,0.00
2023-03-03T05:37:45.823Z,0.00
2023-03-03T05:38:45.820Z,0.00
2023-03-03T05:39:45.817Z,4.00
2023-03-03T05:40:45.794Z,4.00
2023-03-03T05:41:45.788Z,0.00
2023-03-03T05:42:45.869Z,0.00
2023-03-03T05:43:45.783Z,4.00
2023-03-03T05:44:45.746Z,4.00
2023-03-03T05:45:45.741Z,0.00
2023-03-03T05:46:45.798Z,4.00
2023-03-03T05:47:45.735Z,4.00
2023-03-03T05:48:45.710Z,4.00
2023-03-03T05:49:45.703Z,8.00
2023-03-03T05:50:45.690Z,8.00
2023-03-03T05:51:45.689Z,4.00
2023-03-03T05:52:45.686Z,8.00
2023-03-03T05:53:45.661Z,8.00
2023-03-03T05:54:45.646Z,12.00
2023-03-03T05:55:45.647Z,8.00
2023-03-03T05:56:45.632Z,12.00
2023-03-03T05:57:45.641Z,12.00
2023-03-03T05:58:45.617Z,16.00
2023-03-03T05:59:45.604Z,16.00
2023-03-03T06:00:45.682Z,20.00
2023-03-03T06:01:52.546Z,24.00
2023-03-03T06:02:45.621Z,24.00
2023-03-03T06:03:45.557Z,28.00
2023-03-03T06:04:45.545Z,32.00
2023-03-03T06:05:45.581Z,32.00
2023-03-03T06:06:45.576Z,40.00
2023-03-03T06:07:50.532Z,40.00
2023-03-03T06:08:45.543Z,44.00
2023-03-03T06:09:45.504Z,48.00
2023-03-03T06:10:45.495Z,52.00
2023-03-03T06:11:45.478Z,56.00
2023-03-03T06:12:45.541Z,60.00
2023-03-03T06:13:45.471Z,60.00
2023-03-03T06:14:45.459Z,68.00
2023-03-03T06:15:45.478Z,72.00
2023-03-03T06:16:45.465Z,80.00
2023-03-03T06:17:45.435Z,88.00
2023-03-03T06:18:45.403Z,88.00
2023-03-03T06:19:48.018Z,96.00
2023-03-03T06:20:45.379Z,104.00
2023-03-03T06:21:45.386Z,108.00
2023-03-03T06:22:45.374Z,116.00
2023-03-03T06:23:45.360Z,116.00
2023-03-03T06:24:45.339Z,120.00
2023-03-03T06:25:45.331Z,128.00
2023-03-03T06:26:45.330Z,132.00
2023-03-03T06:27:45.330Z,132.00
2023-03-03T06:28:45.365Z,136.00
2023-03-03T06:29:45.295Z,144.00
2023-03-03T06:30:45.276Z,148.00
2023-03-03T06:31:45.294Z,148.00
2023-03-03T06:32:45.346Z,152.00
2023-03-03T06:33:45.257Z,156.00
2023-03-03T06:34:45.356Z,164.00
2023-03-03T06:35:45.257Z,172.00
2023-03-03T06:36:45.223Z,184.00
2023-03-03T06:37:45.217Z,196.00
2023-03-03T06:38:45.199Z,208.00
2023-03-03T06:39:45.191Z,212.00
2023-03-03T06:40:45.174Z,208.00
2023-03-03T06:41:45.165Z,208.00
2023-03-03T06:42:45.190Z,204.00
2023-03-03T06:43:45.171Z,208.00
2023-03-03T06:44:45.151Z,208.00
2023-03-03T06:45:45.131Z,216.00
2023-03-03T06:46:45.112Z,228.00
2023-03-03T06:47:45.115Z,248.00
2023-03-03T06:48:45.090Z,260.00
2023-03-03T06:49:45.108Z,260.00
2023-03-03T06:50:45.069Z,276.00
2023-03-03T06:51:45.057Z,292.00
2023-03-03T06:52:45.066Z,316.00
2023-03-03T06:53:45.041Z,324.00
2023-03-03T06:54:45.021Z,328.00
2023-03-03T06:55:45.168Z,324.00
2023-03-03T06:56:45.025Z,328.00
2023-03-03T06:57:45.009Z,336.00
2023-03-03T06:58:44.986Z,332.00
2023-03-03T06:59:44.973Z,336.00
2023-03-03T07:00:44.994Z,340.00
2023-03-03T07:01:44.957Z,356.00
2023-03-03T07:02:44.954Z,364.00
2023-03-03T07:03:44.940Z,372.00
2023-03-03T07:04:44.923Z,380.00
2023-03-03T07:05:44.918Z,392.00
2023-03-03T07:06:44.912Z,412.00
2023-03-03T07:07:44.947Z,416.00
2023-03-03T07:08:44.884Z,404.00
2023-03-03T07:09:44.870Z,388.00
2023-03-03T07:10:44.867Z,384.00
2023-03-03T07:11:46.576Z,400.00
2023-03-03T07:12:44.851Z,416.00
2023-03-03T07:13:44.863Z,432.00
2023-03-03T07:14:45.543Z,444.00
2023-03-03T07:15:44.821Z,460.00
2023-03-03T07:16:44.818Z,476.00
2023-03-03T07:17:44.806Z,492.00
2023-03-03T07:18:44.807Z,488.00
2023-03-03T07:19:44.771Z,488.00
2023-03-03T07:20:44.770Z,484.00
2023-03-03T07:22:05.799Z,496.00
2023-03-03T07:22:44.758Z,512.00
2023-03-03T07:23:44.746Z,516.00
2023-03-03T07:24:44.744Z,512.00
2023-03-03T07:25:44.726Z,500.00
2023-03-03T07:26:44.710Z,500.00
2023-03-03T07:27:44.712Z,504.00
2023-03-03T07:28:44.714Z,516.00
2023-03-03T07:29:44.683Z,524.00
2023-03-03T07:30:44.687Z,528.00
2023-03-03T07:31:45.695Z,544.00
2023-03-03T07:32:44.666Z,564.00
2023-03-03T07:33:44.636Z,580.00
2023-03-03T07:34:44.628Z,592.00
2023-03-03T07:35:44.665Z,600.00
2023-03-03T07:36:44.624Z,612.00
2023-03-03T07:37:44.609Z,632.00
2023-03-03T07:38:44.588Z,636.00
2023-03-03T07:39:44.574Z,624.00
2023-03-03T07:40:51.553Z,620.00
2023-03-03T07:41:44.560Z,636.00
2023-03-03T07:42:44.567Z,644.00
2023-03-03T07:43:44.566Z,652.00
2023-03-03T07:44:44.560Z,668.00
2023-03-03T07:45:44.541Z,700.00
2023-03-03T07:46:44.507Z,732.00
2023-03-03T07:47:44.519Z,752.00
2023-03-03T07:48:44.491Z,756.00
2023-03-03T07:49:44.468Z,752.00
2023-03-03T07:50:44.475Z,756.00
2023-03-03T07:51:44.456Z,764.00
2023-03-03T07:52:44.448Z,776.00
2023-03-03T07:53:44.454Z,776.00
2023-03-03T07:54:44.420Z,772.00
2023-03-03T07:55:44.416Z,768.00
2023-03-03T07:56:44.395Z,768.00
2023-03-03T07:57:44.386Z,780.00
2023-03-03T07:58:44.405Z,796.00
2023-03-03T07:59:44.360Z,800.00
2023-03-03T08:00:44.380Z,788.00
2023-03-03T08:01:44.452Z,784.00
2023-03-03T08:02:44.335Z,784.00
2023-03-03T08:03:44.336Z,772.00
2023-03-03T08:04:44.412Z,768.00
2023-03-03T08:05:44.297Z,784.00
2023-03-03T08:06:44.292Z,812.00
2023-03-03T08:07:44.278Z,828.00
2023-03-03T08:08:44.439Z,852.00
2023-03-03T08:09:44.260Z,892.00
2023-03-03T08:10:44.301Z,936.00
2023-03-03T08:11:44.260Z,940.00
2023-03-03T08:12:44.226Z,924.00
2023-03-03T08:13:44.218Z,908.00
2023-03-03T08:14:44.208Z,904.00
2023-03-03T08:15:44.296Z,904.00
2023-03-03T08:16:44.176Z,900.00
2023-03-03T08:17:44.163Z,896.00
2023-03-03T08:18:44.167Z,912.00
2023-03-03T08:19:44.135Z,924.00
2023-03-03T08:20:44.128Z,936.00
2023-03-03T08:21:44.118Z,960.00
2023-03-03T08:22:44.106Z,968.00
2023-03-03T08:23:44.097Z,980.00
2023-03-03T08:24:44.081Z,988.00
2023-03-03T08:25:44.156Z,988.00
2023-03-03T08:26:44.072Z,964.00
2023-03-03T08:27:44.072Z,940.00
2023-03-03T08:28:44.077Z,948.00
2023-03-03T08:29:44.026Z,976.00
2023-03-03T08:30:44.111Z,1008.00
2023-03-03T08:31:44.066Z,1032.00
2023-03-03T08:32:44.077Z,1044.00
2023-03-03T08:33:44.016Z,1060.00
2023-03-03T08:34:43.969Z,1096.00
2023-03-03T08:35:43.999Z,1124.00
2023-03-03T08:36:43.982Z,1132.00
2023-03-03T08:37:43.952Z,1152.00
2023-03-03T08:38:43.968Z,1180.00
2023-03-03T08:39:43.915Z,1192.00
2023-03-03T08:40:44.260Z,1176.00
2023-03-03T08:41:43.953Z,1148.00
2023-03-03T08:42:43.883Z,1124.00
2023-03-03T08:43:43.893Z,1124.00
2023-03-03T08:44:43.862Z,1132.00
2023-03-03T08:45:43.883Z,1148.00
2023-03-03T08:46:44.015Z,1176.00
2023-03-03T08:47:43.833Z,1212.00
2023-03-03T08:48:43.832Z,1252.00
2023-03-03T08:49:43.831Z,1288.00
2023-03-03T08:50:43.805Z,1320.00
2023-03-03T08:51:43.786Z,1352.00
2023-03-03T08:52:43.805Z,1384.00
2023-03-03T08:53:43.797Z,1380.00
2023-03-03T08:54:43.763Z,1332.00
2023-03-03T08:55:43.749Z,1280.00
2023-03-03T08:56:43.727Z,1252.00
2023-03-03T08:57:43.724Z,1256.00
2023-03-03T08:58:59.624Z,1284.00
2023-03-03T08:59:44.705Z,1332.00
2023-03-03T09:00:43.698Z,1356.00
2023-03-03T09:01:43.713Z,1324.00
2023-03-03T09:02:43.714Z,1296.00
2023-03-03T09:03:43.662Z,1276.00
2023-03-03T09:04:43.730Z,1280.00
2023-03-03T09:05:43.750Z,1316.00
2023-03-03T09:06:43.655Z,1340.00
2023-03-03T09:07:43.627Z,1332.00
2023-03-03T09:08:43.600Z,1336.00
2023-03-03T09:09:43.620Z,1312.00
2023-03-03T09:10:43.582Z,1292.00
2023-03-03T09:11:43.615Z,1304.00
2023-03-03T09:12:43.564Z,1340.00
2023-03-03T09:13:43.563Z,1400.00
2023-03-03T09:14:43.554Z,1452.00
2023-03-03T09:15:43.630Z,1464.00
2023-03-03T09:16:43.530Z,1496.00
2023-03-03T09:17:43.524Z,1508.00
2023-03-03T09:18:43.521Z,1492.00
2023-03-03T09:19:43.517Z,1472.00
2023-03-03T09:20:43.480Z,1452.00
2023-03-03T09:21:44.173Z,1436.00
2023-03-03T09:22:58.600Z,1432.00
2023-03-03T09:23:43.451Z,1424.00
2023-03-03T09:24:43.473Z,1440.00
2023-03-03T09:25:43.487Z,1476.00
2023-03-03T09:28:16.320Z,1588.00
2023-03-03T09:29:16.423Z,1644.00
2023-03-03T09:30:16.324Z,1696.00
2023-03-03T09:31:16.336Z,1744.00
2023-03-03T09:32:16.332Z,1788.00
2023-03-03T09:33:27.510Z,1836.00
2023-03-03T09:34:17.291Z,1884.00
2023-03-03T09:35:16.276Z,1896.00
2023-03-03T09:36:16.253Z,1908.00
2023-03-03T09:37:16.935Z,1936.00
2023-03-03T09:38:16.392Z,1968.00
2023-03-03T09:39:16.298Z,2004.00
2023-03-03T09:40:16.237Z,2048.00
2023-03-03T09:41:16.225Z,2084.00
2023-03-03T09:42:16.196Z,2092.00
2023-03-03T09:43:18.300Z,2072.00
2023-03-03T09:44:16.202Z,2052.00
2023-03-03T09:45:16.170Z,2012.00
2023-03-03T09:46:16.221Z,1968.00
2023-03-03T09:47:16.177Z,1920.00
2023-03-03T09:48:16.158Z,1904.00
2023-03-03T09:49:16.150Z,1884.00
2023-03-03T09:50:16.107Z,1840.00
2023-03-03T09:51:16.123Z,1812.00
2023-03-03T09:52:16.941Z,1804.00
2023-03-03T09:53:16.128Z,1824.00
2023-03-03T09:54:16.085Z,1872.00
2023-03-03T09:55:16.111Z,1924.00
2023-03-03T09:56:16.051Z,1952.00
2023-03-03T09:57:16.038Z,1972.00
2023-03-03T09:58:16.033Z,2008.00
2023-03-03T09:59:16.050Z,2036.00
2023-03-03T10:00:16.030Z,2084.00
2023-03-03T10:01:15.998Z,2152.00
2023-03-03T10:02:16.015Z,2204.00
2023-03-03T10:03:16.018Z,2204.00
2023-03-03T10:04:15.990Z,2164.00
2023-03-03T10:05:16.000Z,2148.00
2023-03-03T10:06:16.005Z,2200.00
2023-03-03T10:07:16.022Z,2260.00
2023-03-03T10:08:15.988Z,2308.00
2023-03-03T10:09:15.946Z,2348.00
2023-03-03T10:10:15.970Z,2376.00
2023-03-03T10:11:15.999Z,2364.00
2023-03-03T10:12:17.800Z,2328.00
2023-03-03T10:13:15.876Z,2304.00
2023-03-03T10:14:15.956Z,2308.00
2023-03-03T10:15:15.889Z,2304.00
2023-03-03T10:16:15.870Z,2296.00
2023-03-03T10:17:15.911Z,2316.00
2023-03-03T10:18:15.914Z,2376.00
2023-03-03T10:19:15.944Z,2444.00
2023-03-03T10:20:15.869Z,2496.00
2023-03-03T10:21:15.787Z,2552.00
2023-03-03T10:22:15.820Z,2608.00
2023-03-03T10:23:15.763Z,2656.00
2023-03-03T10:24:15.777Z,2708.00
2023-03-03T10:25:15.819Z,2772.00
2023-03-03T10:26:15.732Z,2816.00
2023-03-03T10:27:15.733Z,2856.00
2023-03-03T10:28:15.702Z,2908.00
2023-03-03T10:29:22.125Z,2960.00
2023-03-03T10:30:17.565Z,3008.00
2023-03-03T10:31:18.194Z,3068.00
2023-03-03T10:32:16.532Z,3140.00
2023-03-03T10:33:15.899Z,3204.00
2023-03-03T10:34:15.707Z,3284.00
2023-03-03T10:35:15.961Z,3368.00
2023-03-03T10:36:15.712Z,3364.00
2023-03-03T10:37:15.608Z,3348.00
2023-03-03T10:38:15.606Z,3368.00
2023-03-03T10:39:15.629Z,3392.00
2023-03-03T10:40:15.683Z,3360.00
2023-03-03T10:41:15.588Z,3368.00
2023-03-03T10:42:15.651Z,3452.00
2023-03-03T10:43:29.698Z,3444.00
2023-03-03T10:44:16.528Z,3376.00
2023-03-03T10:45:15.533Z,3404.00
2023-03-03T10:46:15.647Z,3420.00
2023-03-03T10:47:15.521Z,3428.00
2023-03-03T10:48:15.484Z,3480.00
2023-03-03T10:49:15.485Z,3408.00
2023-03-03T10:50:15.486Z,3372.00
2023-03-03T10:51:15.461Z,3416.00
2023-03-03T10:52:15.461Z,3444.00
2023-03-03T10:53:15.468Z,3480.00
2023-03-03T10:54:15.423Z,3528.00
2023-03-03T10:55:15.452Z,3592.00
2023-03-03T10:56:15.428Z,3636.00
2023-03-03T10:57:15.419Z,3656.00
2023-03-03T10:58:15.409Z,3676.00
2023-03-03T10:59:15.384Z,3664.00
2023-03-03T11:00:15.437Z,3632.00
2023-03-03T11:01:15.404Z,3672.00
2023-03-03T11:02:15.342Z,3852.00
2023-03-03T11:03:15.330Z,4132.00
2023-03-03T11:04:15.373Z,4276.00
2023-03-03T11:05:15.328Z,4448.00
2023-03-03T11:06:15.304Z,4844.00
2023-03-03T11:07:15.287Z,5128.00
2023-03-03T11:08:15.338Z,5268.00
2023-03-03T11:09:15.276Z,5284.00
2023-03-03T11:10:15.316Z,5164.00
2023-03-03T11:11:15.241Z,5024.00
2023-03-03T11:12:15.244Z,4924.00
2023-03-03T11:13:15.245Z,4972.00
2023-03-03T11:14:15.206Z,4872.00
2023-03-03T11:15:15.223Z,4976.00
2023-03-03T11:16:15.254Z,5232.00
2023-03-03T11:17:15.183Z,5372.00
2023-03-03T11:18:15.177Z,5420.00
2023-03-03T11:19:15.158Z,5280.00
2023-03-03T11:20:15.148Z,5060.00
2023-03-03T11:21:15.181Z,5048.00
2023-03-03T11:22:15.125Z,5440.00
2023-03-03T11:23:15.121Z,6012.00
2023-03-03T11:24:15.109Z,7024.00
2023-03-03T11:25:15.106Z,7820.00
2023-03-03T11:26:15.127Z,7848.00
2023-03-03T11:27:15.079Z,8596.00
2023-03-03T11:28:15.064Z,8612.00
2023-03-03T11:29:15.081Z,8256.00
2023-03-03T11:30:15.056Z,9648.00
2023-03-03T11:31:15.117Z,9492.00
2023-03-03T11:32:15.103Z,11360.00
2023-03-03T11:33:15.075Z,11744.00
2023-03-03T11:34:15.004Z,13956.00
2023-03-03T11:35:14.999Z,14436.00
2023-03-03T11:36:14.990Z,15296.00
2023-03-03T11:37:14.976Z,10856.00
2023-03-03T11:38:14.990Z,10104.00
2023-03-03T11:39:15.036Z,10452.00
2023-03-03T11:40:15.373Z,10340.00
2023-03-03T11:41:14.948Z,9832.00
2023-03-03T11:42:14.948Z,9340.00
2023-03-03T11:43:26.283Z,8624.00
2023-03-03T11:44:15.920Z,7756.00
2023-03-03T11:45:14.893Z,7132.00
2023-03-03T11:46:14.947Z,7060.00
2023-03-03T11:47:14.869Z,7296.00
2023-03-03T11:48:14.866Z,7700.00
2023-03-03T11:49:14.844Z,8220.00
2023-03-03T11:50:14.832Z,8252.00
2023-03-03T11:51:14.838Z,8152.00
2023-03-03T11:52:14.825Z,8420.00
2023-03-03T11:53:14.811Z,7872.00
2023-03-03T11:54:14.805Z,7296.00
2023-03-03T11:55:14.776Z,7236.00
2023-03-03T11:56:14.781Z,7404.00
2023-03-03T11:57:14.761Z,8528.00
2023-03-03T11:58:14.760Z,9360.00
2023-03-03T11:59:14.738Z,9592.00
2023-03-03T12:00:14.722Z,12004.00
2023-03-03T12:01:14.733Z,13104.00
2023-03-03T12:02:14.777Z,13804.00
2023-03-03T12:03:14.683Z,12916.00
2023-03-03T12:04:14.674Z,12048.00
2023-03-03T12:05:14.706Z,12096.00
2023-03-03T12:06:14.775Z,12856.00
2023-03-03T12:07:18.926Z,13164.00
2023-03-03T12:08:14.681Z,13300.00
2023-03-03T12:09:14.785Z,12840.00
2023-03-03T12:10:14.613Z,12268.00
2023-03-03T12:11:14.648Z,11880.00
2023-03-03T12:12:14.592Z,11900.00
2023-03-03T12:13:14.673Z,12152.00
2023-03-03T12:14:14.591Z,12064.00
2023-03-03T12:15:14.558Z,14256.00
2023-03-03T12:16:14.591Z,16160.00
2023-03-03T12:17:14.538Z,16000.00
2023-03-03T12:18:14.570Z,14480.00
2023-03-03T12:19:14.549Z,14548.00
2023-03-03T12:20:14.517Z,16896.00
2023-03-03T12:21:14.526Z,16768.00
2023-03-03T12:22:14.511Z,17696.00
2023-03-03T12:23:14.516Z,17856.00
2023-03-03T12:24:14.492Z,18720.00
2023-03-03T12:25:14.528Z,21312.00
2023-03-03T12:26:14.499Z,20288.00
2023-03-03T12:27:14.520Z,18400.00
2023-03-03T12:28:14.474Z,17824.00
2023-03-03T12:29:14.437Z,20608.00
2023-03-03T12:30:14.424Z,20096.00
2023-03-03T12:31:14.467Z,22400.00
2023-03-03T12:32:14.468Z,22272.00
2023-03-03T12:33:14.401Z,23392.00
2023-03-03T12:34:14.408Z,24960.00
2023-03-03T12:35:14.387Z,23712.00
2023-03-03T12:36:14.441Z,21376.00
2023-03-03T12:37:14.387Z,20512.00
2023-03-03T12:38:14.360Z,19552.00
2023-03-03T12:39:17.704Z,17568.00
2023-03-03T12:40:15.424Z,18144.00
2023-03-03T12:41:14.325Z,16576.00
2023-03-03T12:42:14.408Z,16704.00
2023-03-03T12:43:14.294Z,19616.00
2023-03-03T12:44:14.313Z,17248.00